createdAt,value
2023-01-12T00:01:47.582Z,101014.31
2023-01-12T00:04:14.657Z,101007.41
2023-01-12T00:06:41.588Z,100999.16
2023-01-12T00:09:08.559Z,101008.91
2023-01-12T00:11:35.654Z,101004.63
2023-01-12T00:14:02.538Z,101001.50
2023-01-12T00:16:35.101Z,101006.84
2023-01-12T00:19:02.494Z,101008.22
2023-01-12T00:21:29.279Z,101002.66
2023-01-12T00:23:55.808Z,101000.69
2023-01-12T00:26:22.347Z,101000.56
2023-01-12T00:28:48.815Z,100990.34
2023-01-12T00:31:15.524Z,100990.34
2023-01-12T00:33:41.987Z,100983.94
2023-01-12T00:36:11.475Z,100984.44
2023-01-12T00:38:38.573Z,100991.97
2023-01-12T00:41:41.770Z,100982.44
2023-01-12T00:44:26.934Z,100987.81
2023-01-12T00:46:53.472Z,100979.09
2023-01-12T00:49:20.019Z,100968.75
2023-01-12T00:51:46.662Z,100967.59
2023-01-12T00:54:13.100Z,100966.88
2023-01-12T00:56:39.983Z,100969.91
2023-01-12T00:59:06.715Z,100968.72
2023-01-12T01:01:34.327Z,100969.75
2023-01-12T01:04:01.181Z,100977.78
2023-01-12T01:06:30.500Z,100978.72
2023-01-12T01:08:56.996Z,100983.47
2023-01-12T01:11:23.517Z,100974.88
2023-01-12T01:13:55.500Z,100985.56
2023-01-12T01:16:22.082Z,100993.84
2023-01-12T01:18:48.618Z,101000.56
2023-01-12T01:21:15.201Z,100994.31
2023-01-12T01:23:42.655Z,100996.53
2023-01-12T01:26:11.036Z,100997.66
2023-01-12T01:28:37.505Z,101003.00
2023-01-12T01:31:05.219Z,101006.16
2023-01-12T01:33:32.147Z,100999.19
2023-01-12T01:35:59.010Z,101001.97
2023-01-12T01:38:25.829Z,101003.59
2023-01-12T01:40:52.371Z,101008.34
2023-01-12T01:43:22.190Z,101006.84
2023-01-12T01:46:02.483Z,101008.84
2023-01-12T01:48:31.174Z,101005.13
2023-01-12T01:51:00.643Z,101005.13
2023-01-12T01:53:28.594Z,100995.13
2023-01-12T01:55:59.057Z,100982.31
2023-01-12T01:58:38.078Z,100987.03
2023-01-12T02:01:04.841Z,100986.44
2023-01-12T02:03:34.055Z,100982.72
2023-01-12T02:06:03.038Z,100987.69
2023-01-12T02:08:48.455Z,100980.84
2023-01-12T02:11:34.670Z,100970.94
2023-01-12T02:14:19.829Z,100963.16
2023-01-12T02:17:06.837Z,100957.47
2023-01-12T02:19:52.968Z,100958.53
2023-01-12T02:22:39.993Z,100950.63
2023-01-12T02:25:26.080Z,100945.28
2023-01-12T02:28:13.238Z,100932.38
2023-01-12T02:30:39.742Z,100921.00
2023-01-12T02:33:25.042Z,100929.13
2023-01-12T02:35:59.193Z,100922.84
2023-01-12T02:38:36.250Z,100919.38
2023-01-12T02:41:02.681Z,100916.91
2023-01-12T02:43:30.134Z,100934.59
2023-01-12T02:46:11.931Z,100934.09
2023-01-12T02:48:40.534Z,100935.75
2023-01-12T02:51:17.743Z,100925.88
2023-01-12T02:53:47.285Z,100914.81
2023-01-12T02:56:16.846Z,100920.16
2023-01-12T02:58:46.844Z,100915.66
2023-01-12T03:01:14.891Z,100917.97
2023-01-12T03:03:41.752Z,100922.47
2023-01-12T03:06:08.430Z,100926.22
2023-01-12T03:08:37.346Z,100917.88
2023-01-12T03:11:03.892Z,100919.56
2023-01-12T03:13:32.221Z,100913.06
2023-01-12T03:16:00.753Z,100910.19
2023-01-12T03:18:36.722Z,100909.69
2023-01-12T03:21:09.402Z,100905.50
2023-01-12T03:23:47.611Z,100899.13
2023-01-12T03:26:15.701Z,100907.84
2023-01-12T03:28:46.535Z,100895.06
2023-01-12T03:31:13.663Z,100897.16
2023-01-12T03:33:41.145Z,100899.13
2023-01-12T03:36:14.055Z,100892.84
2023-01-12T03:38:45.681Z,100889.59
2023-01-12T03:41:17.915Z,100887.16
2023-01-12T03:43:49.877Z,100885.75
2023-01-12T03:46:22.629Z,100893.28
2023-01-12T03:48:49.407Z,100891.81
2023-01-12T03:51:20.186Z,100884.47
2023-01-12T03:53:49.298Z,100882.97
2023-01-12T03:56:17.038Z,100888.09
2023-01-12T03:58:44.215Z,100881.69
2023-01-12T04:01:11.312Z,100891.81
2023-01-12T04:03:37.984Z,100881.69
2023-01-12T04:06:04.518Z,100875.88
2023-01-12T04:08:31.719Z,100885.28
2023-01-12T04:10:58.153Z,100887.47
2023-01-12T04:13:24.728Z,100873.44
2023-01-12T04:15:51.343Z,100867.16
2023-01-12T04:18:17.826Z,100869.97
2023-01-12T04:20:44.342Z,100874.59
2023-01-12T04:23:11.018Z,100860.28
2023-01-12T04:25:37.470Z,100851.44
2023-01-12T04:28:04.515Z,100861.56
2023-01-12T04:30:32.004Z,100861.56
2023-01-12T04:32:58.915Z,100856.22
2023-01-12T04:35:25.785Z,100851.81
2023-01-12T04:37:52.679Z,100847.72
2023-01-12T04:40:19.835Z,100844.25
2023-01-12T04:43:08.486Z,100849.38
2023-01-12T04:45:36.876Z,100841.59
2023-01-12T04:48:05.088Z,100844.84
2023-01-12T04:50:32.073Z,100844.38
2023-01-12T04:52:58.823Z,100844.13
2023-01-12T04:55:25.376Z,100847.47
2023-01-12T04:57:51.843Z,100840.50
2023-01-12T05:00:18.725Z,100839.69
2023-01-12T05:02:45.213Z,100829.56
2023-01-12T05:05:11.715Z,100830.06
2023-01-12T05:07:58.167Z,100834.34
2023-01-12T05:10:24.654Z,100840.84
2023-01-12T05:12:51.195Z,100831.28
2023-01-12T05:15:18.057Z,100825.13
2023-01-12T05:17:46.107Z,100825.13
2023-01-12T05:20:12.851Z,100821.31
2023-01-12T05:22:39.334Z,100813.59
2023-01-12T05:25:06.102Z,100807.00
2023-01-12T05:27:32.768Z,100808.25
2023-01-12T05:29:59.700Z,100803.31
2023-01-12T05:32:26.633Z,100800.66
2023-01-12T05:34:53.273Z,100790.59
2023-01-12T05:37:19.821Z,100787.34
2023-01-12T05:39:46.485Z,100785.16
2023-01-12T05:42:31.468Z,100780.28
2023-01-12T05:44:58.025Z,100780.19
2023-01-12T05:47:24.468Z,100773.22
2023-01-12T05:49:51.023Z,100760.22
2023-01-12T05:52:17.575Z,100754.50
2023-01-12T05:54:44.155Z,100752.00
2023-01-12T05:57:10.653Z,100738.63
2023-01-12T05:59:37.324Z,100748.13
2023-01-12T06:02:04.008Z,100753.31
2023-01-12T06:04:30.730Z,100734.81
2023-01-12T06:06:57.308Z,100725.19
2023-01-12T06:09:23.810Z,100723.00
2023-01-12T06:12:08.919Z,100751.75
2023-01-12T06:14:35.621Z,100743.81
2023-01-12T06:17:02.190Z,100749.72
2023-01-12T06:19:28.733Z,100752.50
2023-01-12T06:21:55.248Z,100754.75
2023-01-12T06:24:21.844Z,100757.53
2023-01-12T06:26:48.431Z,100758.13
2023-01-12T06:29:14.997Z,100753.34
2023-01-12T06:31:45.530Z,100741.50
2023-01-12T06:34:12.246Z,100739.56
2023-01-12T06:36:41.887Z,100739.56
2023-01-12T06:39:09.081Z,100734.50
2023-01-12T06:41:54.387Z,100735.34
2023-01-12T06:44:20.973Z,100737.59
2023-01-12T06:46:47.869Z,100750.06
2023-01-12T06:49:16.520Z,100736.47
2023-01-12T06:51:44.007Z,100739.72
2023-01-12T06:54:10.994Z,100734.81
2023-01-12T06:56:40.466Z,100730.78
2023-01-12T06:59:07.374Z,100736.47
2023-01-12T07:01:37.130Z,100735.47
2023-01-12T07:04:03.685Z,100740.03
2023-01-12T07:06:30.385Z,100747.25
2023-01-12T07:08:57.192Z,100742.13
2023-01-12T07:11:24.205Z,100749.41
2023-01-12T07:13:50.929Z,100725.28
2023-01-12T07:16:17.818Z,100708.44
2023-01-12T07:18:52.167Z,100694.25
2023-01-12T07:21:22.231Z,100682.50
2023-01-12T07:23:48.950Z,100679.81
2023-01-12T07:26:15.762Z,100701.53
2023-01-12T07:28:42.906Z,100698.34
2023-01-12T07:31:09.855Z,100711.81
2023-01-12T07:33:38.455Z,100718.06
2023-01-12T07:36:05.462Z,100725.13
2023-01-12T07:38:32.341Z,100730.00
2023-01-12T07:41:00.483Z,100728.84
2023-01-12T07:43:30.503Z,100729.09
2023-01-12T07:45:57.702Z,100714.25
2023-01-12T07:48:25.149Z,100719.91
2023-01-12T07:50:52.246Z,100712.13
2023-01-12T07:53:19.625Z,100716.69
2023-01-12T07:55:46.525Z,100715.16
2023-01-12T07:58:13.124Z,100705.03
2023-01-12T08:00:39.796Z,100706.47
2023-01-12T08:03:08.185Z,100707.63
2023-01-12T08:05:35.243Z,100709.78
2023-01-12T08:08:03.621Z,100719.94
2023-01-12T08:10:30.358Z,100720.81
2023-01-12T08:12:57.203Z,100701.13
2023-01-12T08:15:24.851Z,100707.50
2023-01-12T08:18:03.802Z,100701.88
2023-01-12T08:20:36.003Z,100693.81
2023-01-12T08:23:05.568Z,100690.75
2023-01-12T08:25:35.360Z,100692.69
2023-01-12T08:28:04.734Z,100689.78
2023-01-12T08:30:31.473Z,100689.78
2023-01-12T08:33:00.740Z,100697.97
2023-01-12T08:35:28.679Z,100696.59
2023-01-12T08:37:56.150Z,100702.75
2023-01-12T08:40:23.589Z,100713.44
2023-01-12T08:42:50.438Z,100718.31
2023-01-12T08:45:17.214Z,100712.47
2023-01-12T08:47:45.314Z,100713.84
2023-01-12T08:50:11.983Z,100711.84
2023-01-12T08:52:38.610Z,100704.63
2023-01-12T08:55:05.547Z,100711.44
2023-01-12T08:57:32.091Z,100706.56
2023-01-12T08:59:58.699Z,100701.44
2023-01-12T09:02:27.217Z,100699.09
2023-01-12T09:04:53.909Z,100699.03
2023-01-12T09:07:20.715Z,100688.34
2023-01-12T09:09:47.222Z,100680.38
2023-01-12T09:12:16.680Z,100685.72
2023-01-12T09:14:43.284Z,100681.03
2023-01-12T09:17:09.852Z,100681.03
2023-01-12T09:19:36.349Z,100685.88
2023-01-12T09:22:03.176Z,100689.69
2023-01-12T09:24:29.697Z,100709.56
2023-01-12T09:26:56.247Z,100713.78
2023-01-12T09:29:22.795Z,100721.41
2023-01-12T09:31:49.469Z,100714.56
2023-01-12T09:34:16.123Z,100732.75
2023-01-12T09:36:42.709Z,100726.41
2023-01-12T09:39:15.513Z,100731.28
2023-01-12T09:42:08.213Z,100725.75
2023-01-12T09:44:56.975Z,100722.34
2023-01-12T09:47:23.501Z,100715.75
2023-01-12T09:50:01.273Z,100709.13
2023-01-12T09:52:45.155Z,100716.75
2023-01-12T09:55:16.622Z,100702.44
2023-01-12T09:57:43.691Z,100702.56
2023-01-12T10:00:14.152Z,100701.72
2023-01-12T10:02:46.662Z,100711.59
2023-01-12T10:05:39.581Z,100722.22
2023-01-12T10:08:09.630Z,100716.44
2023-01-12T10:10:36.065Z,100725.28
2023-01-12T10:13:04.824Z,100719.13
2023-01-12T10:15:39.678Z,100722.56
2023-01-12T10:18:12.725Z,100723.13
2023-01-12T10:20:40.573Z,100713.16
2023-01-12T10:23:07.191Z,100711.28
2023-01-12T10:25:39.377Z,100713.94
2023-01-12T10:28:21.875Z,100711.72
2023-01-12T10:30:48.935Z,100702.09
2023-01-12T10:33:15.484Z,100703.13
2023-01-12T10:36:00.510Z,100713.25
2023-01-12T10:38:30.052Z,100715.94
2023-01-12T10:41:22.717Z,100710.00
2023-01-12T10:43:58.517Z,100715.38
2023-01-12T10:46:27.433Z,100706.78
2023-01-12T10:48:56.391Z,100707.56
2023-01-12T10:51:23.001Z,100700.22
2023-01-12T10:53:51.398Z,100704.53
2023-01-12T10:56:32.382Z,100704.03
2023-01-12T10:59:14.615Z,100698.66
2023-01-12T11:01:45.499Z,100709.38
2023-01-12T11:04:14.153Z,100705.94
2023-01-12T11:06:45.309Z,100712.69
2023-01-12T11:09:25.750Z,100712.03
2023-01-12T11:12:00.141Z,100698.34
2023-01-12T11:14:30.775Z,100705.25
2023-01-12T11:17:08.770Z,100712.53
2023-01-12T11:19:38.662Z,100704.72
2023-01-12T11:22:10.679Z,100718.19
2023-01-12T11:24:43.689Z,100704.25
2023-01-12T11:27:16.987Z,100712.88
2023-01-12T11:29:54.505Z,100708.59
2023-01-12T11:32:27.249Z,100705.38
2023-01-12T11:34:59.105Z,100685.00
2023-01-12T11:37:25.967Z,100678.34
2023-01-12T11:40:01.574Z,100675.25
2023-01-12T11:42:48.863Z,100668.03
2023-01-12T11:45:20.691Z,100664.28
2023-01-12T11:47:58.697Z,100649.84
2023-01-12T11:50:28.255Z,100649.06
2023-01-12T11:52:56.043Z,100639.19
2023-01-12T11:55:36.007Z,100641.16
2023-01-12T11:58:02.548Z,100636.63
2023-01-12T12:00:44.380Z,100642.53
2023-01-12T12:03:20.428Z,100640.06
2023-01-12T12:05:47.023Z,100639.81
2023-01-12T12:08:28.741Z,100634.41
2023-01-12T12:11:01.351Z,100630.53
2023-01-12T12:13:33.256Z,100646.06
2023-01-12T12:16:19.270Z,100634.75
2023-01-12T12:19:04.835Z,100625.09
2023-01-12T12:21:48.619Z,100621.34
2023-01-12T12:24:15.612Z,100629.84
2023-01-12T12:26:50.980Z,100614.16
2023-01-12T12:29:23.988Z,100622.13
2023-01-12T12:32:06.087Z,100622.19
2023-01-12T12:34:52.820Z,100607.97
2023-01-12T12:37:34.838Z,100621.19
2023-01-12T12:40:05.044Z,100615.34
2023-01-12T12:43:02.834Z,100612.66
2023-01-12T12:45:33.085Z,100613.19
2023-01-12T12:48:24.297Z,100608.63
2023-01-12T12:50:57.383Z,100611.00
2023-01-12T12:53:33.780Z,100617.47
2023-01-12T12:56:13.119Z,100612.09
2023-01-12T12:58:48.360Z,100625.50
2023-01-12T13:01:24.304Z,100613.75
2023-01-12T13:03:52.633Z,100617.75
2023-01-12T13:06:21.617Z,100619.75
2023-01-12T13:08:50.951Z,100605.03
2023-01-12T13:11:18.160Z,100612.50
2023-01-12T13:13:59.447Z,100623.84
2023-01-12T13:16:25.852Z,100610.94
2023-01-12T13:18:52.380Z,100608.22
2023-01-12T13:21:37.762Z,100608.72
2023-01-12T13:24:24.882Z,100603.84
2023-01-12T13:26:53.839Z,100597.97
2023-01-12T13:29:23.522Z,100597.66
2023-01-12T13:31:55.991Z,100590.47
2023-01-12T13:34:29.784Z,100586.72
2023-01-12T13:37:05.598Z,100590.47
2023-01-12T13:39:35.527Z,100580.84
2023-01-12T13:42:20.856Z,100577.63
2023-01-12T13:44:48.791Z,100590.97
2023-01-12T13:47:26.657Z,100585.03
2023-01-12T13:49:56.491Z,100572.41
2023-01-12T13:52:31.169Z,100568.63
2023-01-12T13:54:58.257Z,100569.50
2023-01-12T13:57:26.248Z,100563.59
2023-01-12T14:00:11.063Z,100572.69
2023-01-12T14:02:40.831Z,100563.81
2023-01-12T14:05:18.849Z,100556.06
2023-01-12T14:07:45.312Z,100564.09
2023-01-12T14:10:23.833Z,100564.69
2023-01-12T14:12:50.390Z,100573.81
2023-01-12T14:15:41.787Z,100563.00
2023-01-12T14:18:18.975Z,100565.13
2023-01-12T14:20:50.498Z,100575.84
2023-01-12T14:23:26.253Z,100579.09
2023-01-12T14:26:06.412Z,100575.78
2023-01-12T14:28:33.633Z,100584.09
2023-01-12T14:31:00.468Z,100586.28
2023-01-12T14:33:31.985Z,100579.91
2023-01-12T14:36:02.907Z,100581.72
2023-01-12T14:38:30.115Z,100579.09
2023-01-12T14:41:05.382Z,100575.31
2023-01-12T14:43:51.724Z,100575.84
2023-01-12T14:46:29.812Z,100572.63
2023-01-12T14:49:20.063Z,100565.63
2023-01-12T14:51:53.813Z,100569.63
2023-01-12T14:54:24.443Z,100576.34
2023-01-12T14:56:56.487Z,100568.38
2023-01-12T14:59:29.187Z,100573.13
2023-01-12T15:02:14.356Z,100572.06
2023-01-12T15:04:53.342Z,100566.22
2023-01-12T15:07:20.631Z,100571.31
2023-01-12T15:09:57.895Z,100571.88
2023-01-12T15:12:26.211Z,100574.22
2023-01-12T15:14:52.862Z,100560.31
2023-01-12T15:17:38.089Z,100566.72
2023-01-12T15:20:23.328Z,100563.00
2023-01-12T15:23:08.239Z,100569.97
2023-01-12T15:25:38.142Z,100560.88
2023-01-12T15:28:06.161Z,100556.31
2023-01-12T15:30:36.658Z,100561.38
2023-01-12T15:33:03.809Z,100547.94
2023-01-12T15:35:30.676Z,100540.94
2023-01-12T15:37:58.289Z,100549.75
2023-01-12T15:40:26.218Z,100530.22
2023-01-12T15:42:53.488Z,100540.84
2023-01-12T15:45:27.180Z,100545.09
2023-01-12T15:47:54.089Z,100547.41
2023-01-12T15:50:20.641Z,100536.41
2023-01-12T15:52:48.635Z,100534.25
2023-01-12T15:55:19.654Z,100552.59
2023-01-12T15:57:47.362Z,100540.03
2023-01-12T16:00:15.605Z,100549.91
2023-01-12T16:02:43.949Z,100548.63
2023-01-12T16:05:11.270Z,100545.09
2023-01-12T16:07:37.853Z,100544.63
2023-01-12T16:10:04.903Z,100551.03
2023-01-12T16:12:31.453Z,100536.00
2023-01-12T16:14:58.783Z,100544.00
2023-01-12T16:17:25.943Z,100528.91
2023-01-12T16:19:52.586Z,100545.50
2023-01-12T16:22:25.229Z,100535.78
2023-01-12T16:24:52.708Z,100540.84
2023-01-12T16:27:20.222Z,100548.94
2023-01-12T16:29:47.213Z,100547.63
2023-01-12T16:32:13.973Z,100554.88
2023-01-12T16:34:40.627Z,100540.13
2023-01-12T16:37:12.450Z,100552.19
2023-01-12T16:39:39.040Z,100551.38
2023-01-12T16:42:05.728Z,100564.78
2023-01-12T16:44:33.137Z,100556.34
2023-01-12T16:46:59.798Z,100545.66
2023-01-12T16:49:26.422Z,100537.00
2023-01-12T16:51:53.353Z,100540.72
2023-01-12T16:54:20.868Z,100531.09
2023-01-12T16:56:47.496Z,100538.53
2023-01-12T16:59:14.204Z,100549.50
2023-01-12T17:01:40.920Z,100540.66
2023-01-12T17:04:07.551Z,100530.59
2023-01-12T17:06:34.085Z,100530.59
2023-01-12T17:09:00.989Z,100525.78
2023-01-12T17:11:28.294Z,100527.72
2023-01-12T17:13:55.906Z,100531.69
2023-01-12T17:16:23.799Z,100518.81
2023-01-12T17:18:50.963Z,100515.25
2023-01-12T17:21:18.522Z,100523.53
2023-01-12T17:23:45.249Z,100526.75
2023-01-12T17:26:13.360Z,100521.63
2023-01-12T17:28:40.850Z,100515.78
2023-01-12T17:31:11.903Z,100516.56
2023-01-12T17:33:38.939Z,100501.31
2023-01-12T17:36:19.278Z,100508.09
2023-01-12T17:39:18.028Z,100520.44
2023-01-12T17:45:32.524Z,100515.56
2023-01-12T17:48:02.440Z,100518.25
2023-01-12T17:54:19.190Z,100521.16
2023-01-12T17:57:08.766Z,100517.69
2023-01-12T17:59:57.839Z,100518.31
2023-01-12T18:02:50.602Z,100522.88
2023-01-12T18:05:26.819Z,100518.72
2023-01-12T18:07:56.114Z,100515.50
2023-01-12T18:10:26.454Z,100508.50
2023-01-12T18:12:56.384Z,100502.06
2023-01-12T18:15:29.713Z,100500.19
2023-01-12T18:18:09.898Z,100494.59
2023-01-12T18:20:36.952Z,100495.06
2023-01-12T18:23:20.941Z,100501.97
2023-01-12T18:25:56.649Z,100494.50
2023-01-12T18:28:26.987Z,100483.84
2023-01-12T18:31:38.235Z,100497.97
2023-01-12T18:34:19.331Z,100497.69
2023-01-12T18:36:53.024Z,100500.41
2023-01-12T18:39:30.653Z,100499.38
2023-01-12T18:42:33.892Z,100494.75
2023-01-12T18:45:19.988Z,100496.63
2023-01-12T18:51:29.470Z,100496.94
2023-01-12T18:57:35.484Z,100493.47
2023-01-12T19:00:18.787Z,100499.81
2023-01-12T19:02:55.833Z,100500.84
2023-01-12T19:05:41.970Z,100505.13
2023-01-12T19:08:39.167Z,100508.63
2023-01-12T19:11:15.737Z,100503.34
2023-01-12T19:14:03.216Z,100503.44
2023-01-12T19:16:52.012Z,100495.88
2023-01-12T19:19:29.426Z,100499.16
2023-01-12T19:22:17.809Z,100496.59
2023-01-12T19:25:03.153Z,100492.03
2023-01-12T19:27:48.543Z,100496.50
2023-01-12T19:30:15.160Z,100493.25
2023-01-12T19:32:41.919Z,100491.13
2023-01-12T19:35:29.912Z,100495.97
2023-01-12T19:37:56.534Z,100493.84
2023-01-12T19:40:33.206Z,100481.53
2023-01-12T19:43:19.950Z,100486.78
2023-01-12T19:45:48.699Z,100488.59
2023-01-12T19:48:15.870Z,100487.38
2023-01-12T19:50:44.126Z,100481.31
2023-01-12T19:53:15.370Z,100470.81
2023-01-12T19:55:42.755Z,100470.59
2023-01-12T19:58:09.745Z,100462.31
2023-01-12T20:00:41.235Z,100451.53
2023-01-12T20:03:08.810Z,100458.94
2023-01-12T20:05:39.136Z,100457.66
2023-01-12T20:08:06.057Z,100447.03
2023-01-12T20:10:33.389Z,100446.56
2023-01-12T20:13:02.595Z,100452.25
2023-01-12T20:15:31.514Z,100444.13
2023-01-12T20:18:00.070Z,100438.75
2023-01-12T20:20:29.432Z,100437.13
2023-01-12T20:22:56.217Z,100435.47
2023-01-12T20:25:23.652Z,100427.75
2023-01-12T20:27:51.143Z,100441.47
2023-01-12T20:30:36.581Z,100435.63
2023-01-12T20:33:06.204Z,100429.41
2023-01-12T20:35:35.396Z,100433.97
2023-01-12T20:38:06.100Z,100420.00
2023-01-12T20:40:34.265Z,100429.41
2023-01-12T20:43:00.874Z,100420.09
2023-01-12T20:45:27.915Z,100410.97
2023-01-12T20:47:55.874Z,100417.91
2023-01-12T20:50:24.221Z,100418.47
2023-01-12T20:52:52.668Z,100413.66
2023-01-12T20:55:21.075Z,100417.41
2023-01-12T20:57:48.179Z,100402.94
2023-01-12T21:00:14.879Z,100406.63
2023-01-12T21:02:41.738Z,100417.91
2023-01-12T21:05:10.843Z,100411.75
2023-01-12T21:07:37.467Z,100406.09
2023-01-12T21:10:08.779Z,100411.13
2023-01-12T21:12:38.483Z,100412.25
2023-01-12T21:15:05.493Z,100412.06
2023-01-12T21:17:32.191Z,100410.41
2023-01-12T21:19:59.054Z,100415.28
2023-01-12T21:23:15.244Z,100414.13
2023-01-12T21:26:09.090Z,100404.97
2023-01-12T21:28:40.858Z,100423.63
2023-01-12T21:31:30.006Z,100411.38
2023-01-12T21:34:02.586Z,100409.56
2023-01-12T21:37:05.673Z,100398.59
2023-01-12T21:39:53.046Z,100396.44
2023-01-12T21:45:40.242Z,100390.47
2023-01-12T21:48:16.117Z,100390.47
2023-01-12T21:51:03.966Z,100388.34
2023-01-12T21:53:46.589Z,100389.34
2023-01-12T21:56:16.453Z,100381.34
2023-01-12T21:58:57.988Z,100381.94
2023-01-12T22:01:36.139Z,100377.94
2023-01-12T22:04:20.309Z,100391.03
2023-01-12T22:06:53.759Z,100381.69
2023-01-12T22:09:48.946Z,100375.19
2023-01-12T22:12:23.540Z,100386.72
2023-01-12T22:15:04.587Z,100379.00
2023-01-12T22:17:40.179Z,100377.69
2023-01-12T22:20:07.961Z,100382.44
2023-01-12T22:22:46.839Z,100378.19
2023-01-12T22:25:21.172Z,100381.97
2023-01-12T22:30:38.213Z,100379.84
2023-01-12T22:33:24.924Z,100367.56
2023-01-12T22:35:52.331Z,100370.81
2023-01-12T22:38:19.873Z,100369.22
2023-01-12T22:40:56.192Z,100368.66
2023-01-12T22:43:26.693Z,100362.75
2023-01-12T22:45:57.925Z,100366.81
2023-01-12T22:48:25.735Z,100370.91
2023-01-12T22:50:54.573Z,100375.72
2023-01-12T22:53:24.216Z,100375.09
2023-01-12T22:55:51.517Z,100368.66
2023-01-12T22:58:18.462Z,100366.63
2023-01-12T23:00:45.682Z,100359.63
2023-01-12T23:03:13.420Z,100360.47
2023-01-12T23:05:46.012Z,100355.66
2023-01-12T23:08:16.108Z,100350.31
2023-01-12T23:10:53.081Z,100345.22
2023-01-12T23:13:21.339Z,100346.31
2023-01-12T23:15:48.080Z,100341.47
2023-01-12T23:18:17.288Z,100331.28
2023-01-12T23:20:44.448Z,100337.69
2023-01-12T23:23:14.784Z,100332.88
2023-01-12T23:25:46.487Z,100338.25
2023-01-12T23:28:14.327Z,100345.19
2023-01-12T23:30:41.198Z,100330.97
2023-01-12T23:33:07.945Z,100336.25
2023-01-12T23:35:36.003Z,100330.59
2023-01-12T23:38:05.929Z,100323.19
2023-01-12T23:40:32.409Z,100323.78
2023-01-12T23:43:00.585Z,100316.28
2023-01-12T23:48:27.710Z,100313.66
2023-01-12T23:51:16.244Z,100316.91
2023-01-12T23:53:55.852Z,100313.16
2023-01-12T23:56:32.390Z,100317.44
2023-01-12T23:59:08.821Z,100304.56
